sensor_id;sensor_type;location;lat;lon;timestamp;temperature;humidity
14735;DHT22;7458;49.002;8.472;2022-12-07T00:01:40;6.30;99.90
14735;DHT22;7458;49.002;8.472;2022-12-07T00:04:09;6.30;99.90
14735;DHT22;7458;49.002;8.472;2022-12-07T00:06:39;6.40;99.90
14735;DHT22;7458;49.002;8.472;2022-12-07T00:09:07;6.30;99.90
14735;DHT22;7458;49.002;8.472;2022-12-07T00:11:37;6.30;99.90
14735;DHT22;7458;49.002;8.472;2022-12-07T00:14:07;6.30;99.90
14735;DHT22;7458;49.002;8.472;2022-12-07T00:16:35;6.30;99.90
14735;DHT22;7458;49.002;8.472;2022-12-07T00:19:02;6.30;99.90
14735;DHT22;7458;49.002;8.472;2022-12-07T00:21:34;6.30;99.90
14735;DHT22;7458;49.002;8.472;2022-12-07T00:24:01;6.30;99.90
14735;DHT22;7458;49.002;8.472;2022-12-07T00:26:30;6.30;99.90
14735;DHT22;7458;49.002;8.472;2022-12-07T00:28:59;6.30;99.90
14735;DHT22;7458;49.002;8.472;2022-12-07T00:31:36;6.30;99.90
14735;DHT22;7458;49.002;8.472;2022-12-07T00:34:05;6.20;99.90
14735;DHT22;7458;49.002;8.472;2022-12-07T00:36:32;6.20;99.90
14735;DHT22;7458;49.002;8.472;2022-12-07T00:38:59;6.10;99.90
14735;DHT22;7458;49.002;8.472;2022-12-07T00:41:27;6.20;99.90
14735;DHT22;7458;49.002;8.472;2022-12-07T00:43:53;6.20;99.90
14735;DHT22;7458;49.002;8.472;2022-12-07T00:46:20;6.10;99.90
14735;DHT22;7458;49.002;8.472;2022-12-07T00:48:48;6.10;99.90
14735;DHT22;7458;49.002;8.472;2022-12-07T00:51:16;6.30;99.90
14735;DHT22;7458;49.002;8.472;2022-12-07T00:53:43;6.20;99.90
14735;DHT22;7458;49.002;8.472;2022-12-07T00:56:15;6.10;99.90
14735;DHT22;7458;49.002;8.472;2022-12-07T01:01:19;6.10;99.90
14735;DHT22;7458;49.002;8.472;2022-12-07T01:03:45;6.10;99.90
14735;DHT22;7458;49.002;8.472;2022-12-07T01:06:17;6.10;99.90
14735;DHT22;7458;49.002;8.472;2022-12-07T01:08:44;6.00;99.90
14735;DHT22;7458;49.002;8.472;2022-12-07T01:11:14;6.00;99.90
14735;DHT22;7458;49.002;8.472;2022-12-07T01:13:42;6.00;99.90
14735;DHT22;7458;49.002;8.472;2022-12-07T01:16:11;6.00;99.90
14735;DHT22;7458;49.002;8.472;2022-12-07T01:18:40;6.30;99.90
14735;DHT22;7458;49.002;8.472;2022-12-07T01:21:11;6.00;99.90
14735;DHT22;7458;49.002;8.472;2022-12-07T01:23:40;6.00;99.90
14735;DHT22;7458;49.002;8.472;2022-12-07T01:26:09;6.00;99.90
14735;DHT22;7458;49.002;8.472;2022-12-07T01:28:37;6.20;99.90
14735;DHT22;7458;49.002;8.472;2022-12-07T01:31:08;6.00;99.90
14735;DHT22;7458;49.002;8.472;2022-12-07T01:33:38;6.10;99.90
14735;DHT22;7458;49.002;8.472;2022-12-07T01:36:22;6.00;99.90
14735;DHT22;7458;49.002;8.472;2022-12-07T01:38:52;5.90;99.90
14735;DHT22;7458;49.002;8.472;2022-12-07T01:41:23;6.00;99.90
14735;DHT22;7458;49.002;8.472;2022-12-07T01:47:03;5.90;99.90
14735;DHT22;7458;49.002;8.472;2022-12-07T01:49:44;5.90;99.90
14735;DHT22;7458;49.002;8.472;2022-12-07T01:52:27;5.90;99.90
14735;DHT22;7458;49.002;8.472;2022-12-07T01:55:00;5.90;99.90
14735;DHT22;7458;49.002;8.472;2022-12-07T01:57:30;5.90;99.90
14735;DHT22;7458;49.002;8.472;2022-12-07T01:59:59;5.90;99.90
14735;DHT22;7458;49.002;8.472;2022-12-07T02:02:32;5.90;99.90
14735;DHT22;7458;49.002;8.472;2022-12-07T02:05:02;5.80;99.90
14735;DHT22;7458;49.002;8.472;2022-12-07T02:07:31;5.90;99.90
14735;DHT22;7458;49.002;8.472;2022-12-07T02:10:13;5.90;99.90
14735;DHT22;7458;49.002;8.472;2022-12-07T02:12:40;5.90;99.90
14735;DHT22;7458;49.002;8.472;2022-12-07T02:15:06;5.90;99.90
14735;DHT22;7458;49.002;8.472;2022-12-07T02:34:55;5.80;99.90
14735;DHT22;7458;49.002;8.472;2022-12-07T02:37:39;5.80;99.90
14735;DHT22;7458;49.002;8.472;2022-12-07T02:40:12;5.90;99.90
14735;DHT22;7458;49.002;8.472;2022-12-07T02:42:47;5.80;99.90
14735;DHT22;7458;49.002;8.472;2022-12-07T02:45:21;5.80;99.90
14735;DHT22;7458;49.002;8.472;2022-12-07T02:47:51;5.80;99.90
14735;DHT22;7458;49.002;8.472;2022-12-07T02:50:21;5.70;99.90
14735;DHT22;7458;49.002;8.472;2022-12-07T02:52:47;5.80;99.90
14735;DHT22;7458;49.002;8.472;2022-12-07T02:55:15;5.70;99.90
14735;DHT22;7458;49.002;8.472;2022-12-07T02:57:52;6.00;99.90
14735;DHT22;7458;49.002;8.472;2022-12-07T03:00:59;5.80;99.90
14735;DHT22;7458;49.002;8.472;2022-12-07T03:03:29;5.80;99.90
14735;DHT22;7458;49.002;8.472;2022-12-07T03:06:16;6.00;99.90
14735;DHT22;7458;49.002;8.472;2022-12-07T03:09:02;5.90;99.90
14735;DHT22;7458;49.002;8.472;2022-12-07T03:11:50;5.80;99.90
14735;DHT22;7458;49.002;8.472;2022-12-07T03:14:30;5.80;99.90
14735;DHT22;7458;49.002;8.472;2022-12-07T03:17:12;5.80;99.90
14735;DHT22;7458;49.002;8.472;2022-12-07T03:19:43;5.80;99.90
14735;DHT22;7458;49.002;8.472;2022-12-07T03:22:13;5.70;99.90
14735;DHT22;7458;49.002;8.472;2022-12-07T03:24:44;5.80;99.90
14735;DHT22;7458;49.002;8.472;2022-12-07T03:27:28;5.60;99.90
14735;DHT22;7458;49.002;8.472;2022-12-07T03:30:23;5.60;99.90
14735;DHT22;7458;49.002;8.472;2022-12-07T03:33:07;5.60;99.90
14735;DHT22;7458;49.002;8.472;2022-12-07T03:35:49;5.50;99.90
14735;DHT22;7458;49.002;8.472;2022-12-07T03:38:30;5.50;99.90
14735;DHT22;7458;49.002;8.472;2022-12-07T03:41:14;5.50;99.90
14735;DHT22;7458;49.002;8.472;2022-12-07T03:43:44;5.50;99.90
14735;DHT22;7458;49.002;8.472;2022-12-07T03:49:36;5.60;99.90
14735;DHT22;7458;49.002;8.472;2022-12-07T03:52:23;5.60;99.90
14735;DHT22;7458;49.002;8.472;2022-12-07T03:55:11;5.80;99.90
14735;DHT22;7458;49.002;8.472;2022-12-07T03:57:40;5.50;99.90
14735;DHT22;7458;49.002;8.472;2022-12-07T04:00:09;5.60;99.90
14735;DHT22;7458;49.002;8.472;2022-12-07T04:02:37;5.50;99.90
14735;DHT22;7458;49.002;8.472;2022-12-07T04:05:03;5.70;99.90
14735;DHT22;7458;49.002;8.472;2022-12-07T04:07:30;5.60;99.90
14735;DHT22;7458;49.002;8.472;2022-12-07T04:09:55;5.60;99.90
14735;DHT22;7458;49.002;8.472;2022-12-07T04:12:22;5.60;99.90
14735;DHT22;7458;49.002;8.472;2022-12-07T04:14:48;5.50;99.90
14735;DHT22;7458;49.002;8.472;2022-12-07T04:17:15;5.50;99.90
14735;DHT22;7458;49.002;8.472;2022-12-07T04:19:40;5.50;99.90
14735;DHT22;7458;49.002;8.472;2022-12-07T04:22:07;5.50;99.90
14735;DHT22;7458;49.002;8.472;2022-12-07T04:24:34;5.50;99.90
14735;DHT22;7458;49.002;8.472;2022-12-07T04:27:00;5.50;99.90
14735;DHT22;7458;49.002;8.472;2022-12-07T04:29:26;5.50;99.90
14735;DHT22;7458;49.002;8.472;2022-12-07T04:31:52;5.60;99.90
14735;DHT22;7458;49.002;8.472;2022-12-07T04:34:19;5.60;99.90
14735;DHT22;7458;49.002;8.472;2022-12-07T04:36:46;5.60;99.90
14735;DHT22;7458;49.002;8.472;2022-12-07T04:39:24;5.60;99.90
14735;DHT22;7458;49.002;8.472;2022-12-07T04:41:55;5.60;99.90
14735;DHT22;7458;49.002;8.472;2022-12-07T04:44:22;5.60;99.90
14735;DHT22;7458;49.002;8.472;2022-12-07T04:46:49;5.60;99.90
14735;DHT22;7458;49.002;8.472;2022-12-07T04:49:16;5.50;99.90
14735;DHT22;7458;49.002;8.472;2022-12-07T04:51:43;5.50;99.90
14735;DHT22;7458;49.002;8.472;2022-12-07T04:54:09;5.50;99.90
14735;DHT22;7458;49.002;8.472;2022-12-07T04:56:35;5.50;99.90
14735;DHT22;7458;49.002;8.472;2022-12-07T04:59:02;5.60;99.90
14735;DHT22;7458;49.002;8.472;2022-12-07T05:01:29;5.60;99.90
14735;DHT22;7458;49.002;8.472;2022-12-07T05:03:56;5.50;99.90
14735;DHT22;7458;49.002;8.472;2022-12-07T05:06:22;5.50;99.90
14735;DHT22;7458;49.002;8.472;2022-12-07T05:08:47;5.50;99.90
14735;DHT22;7458;49.002;8.472;2022-12-07T05:11:14;5.50;99.90
14735;DHT22;7458;49.002;8.472;2022-12-07T05:14:02;5.50;99.90
14735;DHT22;7458;49.002;8.472;2022-12-07T05:16:29;5.90;99.90
14735;DHT22;7458;49.002;8.472;2022-12-07T05:18:55;5.40;99.90
14735;DHT22;7458;49.002;8.472;2022-12-07T05:21:21;5.50;99.90
14735;DHT22;7458;49.002;8.472;2022-12-07T05:23:47;5.50;99.90
14735;DHT22;7458;49.002;8.472;2022-12-07T05:26:13;5.50;99.90
14735;DHT22;7458;49.002;8.472;2022-12-07T05:28:39;5.50;99.90
14735;DHT22;7458;49.002;8.472;2022-12-07T05:31:04;5.50;99.90
14735;DHT22;7458;49.002;8.472;2022-12-07T05:33:30;5.50;99.90
14735;DHT22;7458;49.002;8.472;2022-12-07T05:35:56;5.50;99.90
14735;DHT22;7458;49.002;8.472;2022-12-07T05:38:22;5.50;99.90
14735;DHT22;7458;49.002;8.472;2022-12-07T05:40:47;5.70;99.90
14735;DHT22;7458;49.002;8.472;2022-12-07T05:43:13;5.50;99.90
14735;DHT22;7458;49.002;8.472;2022-12-07T05:45:39;5.50;99.90
14735;DHT22;7458;49.002;8.472;2022-12-07T05:48:05;5.50;99.90
14735;DHT22;7458;49.002;8.472;2022-12-07T05:50:31;5.50;99.90
14735;DHT22;7458;49.002;8.472;2022-12-07T05:52:56;5.40;99.90
14735;DHT22;7458;49.002;8.472;2022-12-07T05:55:22;5.40;99.90
14735;DHT22;7458;49.002;8.472;2022-12-07T05:57:48;5.40;99.90
14735;DHT22;7458;49.002;8.472;2022-12-07T06:00:32;5.50;99.90
14735;DHT22;7458;49.002;8.472;2022-12-07T06:02:58;5.40;99.90
14735;DHT22;7458;49.002;8.472;2022-12-07T06:05:24;5.50;99.90
14735;DHT22;7458;49.002;8.472;2022-12-07T06:07:49;5.50;99.90
14735;DHT22;7458;49.002;8.472;2022-12-07T06:10:15;5.50;99.90
14735;DHT22;7458;49.002;8.472;2022-12-07T06:12:41;5.40;99.90
14735;DHT22;7458;49.002;8.472;2022-12-07T06:15:09;5.50;99.90
14735;DHT22;7458;49.002;8.472;2022-12-07T06:17:38;5.50;99.90
14735;DHT22;7458;49.002;8.472;2022-12-07T06:20:04;5.50;99.90
14735;DHT22;7458;49.002;8.472;2022-12-07T06:22:31;5.50;99.90
14735;DHT22;7458;49.002;8.472;2022-12-07T06:24:57;5.40;99.90
14735;DHT22;7458;49.002;8.472;2022-12-07T06:27:22;5.50;99.90
14735;DHT22;7458;49.002;8.472;2022-12-07T06:29:48;5.70;99.90
14735;DHT22;7458;49.002;8.472;2022-12-07T06:32:14;5.50;99.90
14735;DHT22;7458;49.002;8.472;2022-12-07T06:34:39;5.50;99.90
14735;DHT22;7458;49.002;8.472;2022-12-07T06:37:05;5.50;99.90
14735;DHT22;7458;49.002;8.472;2022-12-07T06:39:31;5.50;99.90
14735;DHT22;7458;49.002;8.472;2022-12-07T06:41:58;5.50;99.90
14735;DHT22;7458;49.002;8.472;2022-12-07T06:44:24;5.50;99.90
14735;DHT22;7458;49.002;8.472;2022-12-07T06:46:51;5.40;99.90
14735;DHT22;7458;49.002;8.472;2022-12-07T06:49:17;5.40;99.90
14735;DHT22;7458;49.002;8.472;2022-12-07T06:51:43;5.50;99.90
14735;DHT22;7458;49.002;8.472;2022-12-07T06:54:11;5.40;99.90
14735;DHT22;7458;49.002;8.472;2022-12-07T06:56:38;5.40;99.90
14735;DHT22;7458;49.002;8.472;2022-12-07T06:59:04;5.50;99.90
14735;DHT22;7458;49.002;8.472;2022-12-07T07:01:32;5.50;99.90
14735;DHT22;7458;49.002;8.472;2022-12-07T07:04:00;5.50;99.90
14735;DHT22;7458;49.002;8.472;2022-12-07T07:06:27;5.40;99.90
14735;DHT22;7458;49.002;8.472;2022-12-07T07:08:53;5.50;99.90
14735;DHT22;7458;49.002;8.472;2022-12-07T07:11:19;5.50;99.90
14735;DHT22;7458;49.002;8.472;2022-12-07T07:13:45;5.50;99.90
14735;DHT22;7458;49.002;8.472;2022-12-07T07:16:11;5.70;99.90
14735;DHT22;7458;49.002;8.472;2022-12-07T07:18:37;5.60;99.90
14735;DHT22;7458;49.002;8.472;2022-12-07T07:21:03;5.50;99.90
14735;DHT22;7458;49.002;8.472;2022-12-07T07:23:29;5.50;99.90
14735;DHT22;7458;49.002;8.472;2022-12-07T07:25:55;5.40;99.90
14735;DHT22;7458;49.002;8.472;2022-12-07T07:28:22;5.40;99.90
14735;DHT22;7458;49.002;8.472;2022-12-07T07:30:48;5.50;99.90
14735;DHT22;7458;49.002;8.472;2022-12-07T07:33:14;5.50;99.90
14735;DHT22;7458;49.002;8.472;2022-12-07T07:35:40;5.60;99.90
14735;DHT22;7458;49.002;8.472;2022-12-07T07:38:07;5.60;99.90
14735;DHT22;7458;49.002;8.472;2022-12-07T07:40:33;5.60;99.90
14735;DHT22;7458;49.002;8.472;2022-12-07T07:42:59;5.70;99.90
14735;DHT22;7458;49.002;8.472;2022-12-07T07:45:27;5.80;99.90
14735;DHT22;7458;49.002;8.472;2022-12-07T07:47:54;5.50;99.90
14735;DHT22;7458;49.002;8.472;2022-12-07T07:50:21;5.60;99.90
14735;DHT22;7458;49.002;8.472;2022-12-07T07:52:47;5.60;99.90
14735;DHT22;7458;49.002;8.472;2022-12-07T07:55:13;5.50;99.90
14735;DHT22;7458;49.002;8.472;2022-12-07T07:57:40;5.60;99.90
14735;DHT22;7458;49.002;8.472;2022-12-07T08:00:09;5.60;99.90
14735;DHT22;7458;49.002;8.472;2022-12-07T08:02:39;5.60;99.90
14735;DHT22;7458;49.002;8.472;2022-12-07T08:05:06;5.80;99.90
14735;DHT22;7458;49.002;8.472;2022-12-07T08:07:32;5.70;99.90
14735;DHT22;7458;49.002;8.472;2022-12-07T08:09:58;5.50;99.90
14735;DHT22;7458;49.002;8.472;2022-12-07T08:12:23;5.50;99.90
14735;DHT22;7458;49.002;8.472;2022-12-07T08:14:49;5.50;99.90
14735;DHT22;7458;49.002;8.472;2022-12-07T08:17:15;5.50;99.90
14735;DHT22;7458;49.002;8.472;2022-12-07T08:19:40;5.40;99.90
14735;DHT22;7458;49.002;8.472;2022-12-07T08:22:06;5.40;99.90
14735;DHT22;7458;49.002;8.472;2022-12-07T08:24:35;5.50;99.90
14735;DHT22;7458;49.002;8.472;2022-12-07T08:27:01;5.50;99.90
14735;DHT22;7458;49.002;8.472;2022-12-07T08:29:28;5.50;99.90
14735;DHT22;7458;49.002;8.472;2022-12-07T08:31:54;5.50;99.90
14735;DHT22;7458;49.002;8.472;2022-12-07T08:34:19;5.60;99.90
14735;DHT22;7458;49.002;8.472;2022-12-07T08:36:45;5.50;99.90
14735;DHT22;7458;49.002;8.472;2022-12-07T08:39:11;5.60;99.90
14735;DHT22;7458;49.002;8.472;2022-12-07T08:41:37;5.60;99.90
14735;DHT22;7458;49.002;8.472;2022-12-07T08:44:03;5.60;99.90
14735;DHT22;7458;49.002;8.472;2022-12-07T08:46:48;5.60;99.90
14735;DHT22;7458;49.002;8.472;2022-12-07T08:49:31;5.60;99.90
14735;DHT22;7458;49.002;8.472;2022-12-07T08:52:01;5.60;99.90
14735;DHT22;7458;49.002;8.472;2022-12-07T08:54:30;5.60;99.90
14735;DHT22;7458;49.002;8.472;2022-12-07T08:56:56;5.90;99.90
14735;DHT22;7458;49.002;8.472;2022-12-07T08:59:22;5.50;99.90
14735;DHT22;7458;49.002;8.472;2022-12-07T09:01:48;5.50;99.90
14735;DHT22;7458;49.002;8.472;2022-12-07T09:04:14;5.60;99.90
14735;DHT22;7458;49.002;8.472;2022-12-07T09:06:41;5.90;99.90
14735;DHT22;7458;49.002;8.472;2022-12-07T09:09:07;5.60;99.90
14735;DHT22;7458;49.002;8.472;2022-12-07T09:11:35;5.70;99.90
14735;DHT22;7458;49.002;8.472;2022-12-07T09:14:01;5.70;99.90
14735;DHT22;7458;49.002;8.472;2022-12-07T09:16:27;5.70;99.90
14735;DHT22;7458;49.002;8.472;2022-12-07T09:18:52;5.80;99.90
14735;DHT22;7458;49.002;8.472;2022-12-07T09:21:18;5.80;99.90
14735;DHT22;7458;49.002;8.472;2022-12-07T09:23:44;5.90;99.90
14735;DHT22;7458;49.002;8.472;2022-12-07T09:26:10;5.90;99.90
14735;DHT22;7458;49.002;8.472;2022-12-07T09:28:35;6.00;99.90
14735;DHT22;7458;49.002;8.472;2022-12-07T09:31:02;6.10;99.90
14735;DHT22;7458;49.002;8.472;2022-12-07T09:33:29;6.20;99.90
14735;DHT22;7458;49.002;8.472;2022-12-07T09:35:54;6.20;99.90
14735;DHT22;7458;49.002;8.472;2022-12-07T09:38:20;6.30;99.90
14735;DHT22;7458;49.002;8.472;2022-12-07T09:40:46;6.30;99.90
14735;DHT22;7458;49.002;8.472;2022-12-07T09:43:18;6.30;99.90
14735;DHT22;7458;49.002;8.472;2022-12-07T09:45:48;6.30;99.90
14735;DHT22;7458;49.002;8.472;2022-12-07T09:48:32;6.30;99.90
14735;DHT22;7458;49.002;8.472;2022-12-07T09:51:02;6.20;99.90
14735;DHT22;7458;49.002;8.472;2022-12-07T09:53:38;6.30;99.90
14735;DHT22;7458;49.002;8.472;2022-12-07T09:56:05;6.50;99.90
14735;DHT22;7458;49.002;8.472;2022-12-07T09:58:32;6.20;99.90
14735;DHT22;7458;49.002;8.472;2022-12-07T10:01:05;6.20;99.90
14735;DHT22;7458;49.002;8.472;2022-12-07T10:03:39;6.30;99.90
14735;DHT22;7458;49.002;8.472;2022-12-07T10:06:12;6.40;99.90
14735;DHT22;7458;49.002;8.472;2022-12-07T10:08:38;6.40;99.90
14735;DHT22;7458;49.002;8.472;2022-12-07T10:11:07;6.40;99.90
14735;DHT22;7458;49.002;8.472;2022-12-07T10:13:38;6.60;99.90
14735;DHT22;7458;49.002;8.472;2022-12-07T10:16:26;6.60;99.90
14735;DHT22;7458;49.002;8.472;2022-12-07T10:18:57;6.70;99.90
14735;DHT22;7458;49.002;8.472;2022-12-07T10:22:01;6.70;99.90
14735;DHT22;7458;49.002;8.472;2022-12-07T10:24:39;6.80;99.90
14735;DHT22;7458;49.002;8.472;2022-12-07T10:27:22;6.80;99.90
14735;DHT22;7458;49.002;8.472;2022-12-07T10:29:54;6.80;99.90
14735;DHT22;7458;49.002;8.472;2022-12-07T10:32:41;6.80;99.90
14735;DHT22;7458;49.002;8.472;2022-12-07T10:35:24;6.70;99.90
14735;DHT22;7458;49.002;8.472;2022-12-07T10:37:53;6.70;99.90
14735;DHT22;7458;49.002;8.472;2022-12-07T10:40:30;6.70;99.90
14735;DHT22;7458;49.002;8.472;2022-12-07T10:48:53;6.80;99.90
14735;DHT22;7458;49.002;8.472;2022-12-07T10:51:26;6.70;99.90
14735;DHT22;7458;49.002;8.472;2022-12-07T10:54:21;6.60;99.90
14735;DHT22;7458;49.002;8.472;2022-12-07T11:02:24;6.50;99.90
14735;DHT22;7458;49.002;8.472;2022-12-07T11:05:49;6.50;99.90
14735;DHT22;7458;49.002;8.472;2022-12-07T11:08:44;6.60;99.90
14735;DHT22;7458;49.002;8.472;2022-12-07T11:11:35;6.60;99.90
14735;DHT22;7458;49.002;8.472;2022-12-07T11:17:11;6.60;99.90
14735;DHT22;7458;49.002;8.472;2022-12-07T11:25:43;8.70;99.90
14735;DHT22;7458;49.002;8.472;2022-12-07T11:31:38;7.90;99.90
14735;DHT22;7458;49.002;8.472;2022-12-07T11:36:57;7.60;99.90
14735;DHT22;7458;49.002;8.472;2022-12-07T11:39:28;7.60;99.90
14735;DHT22;7458;49.002;8.472;2022-12-07T11:42:27;7.60;99.90
14735;DHT22;7458;49.002;8.472;2022-12-07T11:45:20;7.60;99.90
14735;DHT22;7458;49.002;8.472;2022-12-07T11:53:14;7.70;99.90
14735;DHT22;7458;49.002;8.472;2022-12-07T11:55:57;7.50;99.90
14735;DHT22;7458;49.002;8.472;2022-12-07T12:01:16;7.40;99.90
14735;DHT22;7458;49.002;8.472;2022-12-07T12:06:25;7.20;99.90
14735;DHT22;7458;49.002;8.472;2022-12-07T12:11:48;7.20;99.90
14735;DHT22;7458;49.002;8.472;2022-12-07T12:15:28;7.10;99.90
14735;DHT22;7458;49.002;8.472;2022-12-07T12:21:17;7.00;99.90
14735;DHT22;7458;49.002;8.472;2022-12-07T12:24:00;6.90;99.90
14735;DHT22;7458;49.002;8.472;2022-12-07T12:26:36;6.90;99.90
14735;DHT22;7458;49.002;8.472;2022-12-07T12:29:06;7.00;99.90
14735;DHT22;7458;49.002;8.472;2022-12-07T12:31:47;7.00;99.90
14735;DHT22;7458;49.002;8.472;2022-12-07T12:35:00;7.00;99.90
14735;DHT22;7458;49.002;8.472;2022-12-07T12:42:45;7.10;99.90
14735;DHT22;7458;49.002;8.472;2022-12-07T12:45:27;7.00;99.90
14735;DHT22;7458;49.002;8.472;2022-12-07T12:57:18;7.10;99.90
14735;DHT22;7458;49.002;8.472;2022-12-07T13:18:38;6.90;99.90
14735;DHT22;7458;49.002;8.472;2022-12-07T13:23:39;6.90;99.90
14735;DHT22;7458;49.002;8.472;2022-12-07T13:26:35;6.90;99.90
14735;DHT22;7458;49.002;8.472;2022-12-07T13:31:50;7.00;99.90
14735;DHT22;7458;49.002;8.472;2022-12-07T13:36:53;6.80;99.90
14735;DHT22;7458;49.002;8.472;2022-12-07T13:39:21;6.80;99.90
14735;DHT22;7458;49.002;8.472;2022-12-07T13:41:56;7.00;99.90
14735;DHT22;7458;49.002;8.472;2022-12-07T13:44:25;6.80;99.90
14735;DHT22;7458;49.002;8.472;2022-12-07T13:47:04;6.70;99.90
14735;DHT22;7458;49.002;8.472;2022-12-07T13:49:55;6.70;99.90
14735;DHT22;7458;49.002;8.472;2022-12-07T13:52:27;6.80;99.90
14735;DHT22;7458;49.002;8.472;2022-12-07T13:57:31;7.00;99.90
14735;DHT22;7458;49.002;8.472;2022-12-07T14:00:04;7.00;99.90
14735;DHT22;7458;49.002;8.472;2022-12-07T14:03:04;7.10;99.90
14735;DHT22;7458;49.002;8.472;2022-12-07T14:05:32;7.10;99.90
14735;DHT22;7458;49.002;8.472;2022-12-07T14:10:31;7.00;99.90
14735;DHT22;7458;49.002;8.472;2022-12-07T14:13:00;7.00;99.90
14735;DHT22;7458;49.002;8.472;2022-12-07T14:15:32;7.00;99.90
14735;DHT22;7458;49.002;8.472;2022-12-07T14:18:01;7.10;99.90
14735;DHT22;7458;49.002;8.472;2022-12-07T14:20:32;7.00;99.90
14735;DHT22;7458;49.002;8.472;2022-12-07T14:23:24;7.00;99.90
14735;DHT22;7458;49.002;8.472;2022-12-07T14:25:53;6.90;99.90
14735;DHT22;7458;49.002;8.472;2022-12-07T14:28:36;6.90;99.90
14735;DHT22;7458;49.002;8.472;2022-12-07T14:31:03;6.90;99.90
14735;DHT22;7458;49.002;8.472;2022-12-07T14:33:37;6.90;99.90
14735;DHT22;7458;49.002;8.472;2022-12-07T14:36:03;6.90;99.90
14735;DHT22;7458;49.002;8.472;2022-12-07T14:38:29;6.90;99.90
14735;DHT22;7458;49.002;8.472;2022-12-07T14:40:55;6.80;99.90
14735;DHT22;7458;49.002;8.472;2022-12-07T14:43:45;6.70;99.90
14735;DHT22;7458;49.002;8.472;2022-12-07T14:46:11;6.80;99.90
14735;DHT22;7458;49.002;8.472;2022-12-07T14:48:37;6.70;99.90
14735;DHT22;7458;49.002;8.472;2022-12-07T14:51:02;6.70;99.90
14735;DHT22;7458;49.002;8.472;2022-12-07T14:53:33;6.70;99.90
14735;DHT22;7458;49.002;8.472;2022-12-07T14:56:03;6.80;99.90
14735;DHT22;7458;49.002;8.472;2022-12-07T14:58:31;6.80;99.90
14735;DHT22;7458;49.002;8.472;2022-12-07T15:00:57;6.70;99.90
14735;DHT22;7458;49.002;8.472;2022-12-07T15:03:23;6.70;99.90
14735;DHT22;7458;49.002;8.472;2022-12-07T15:05:49;6.70;99.90
14735;DHT22;7458;49.002;8.472;2022-12-07T15:08:15;6.80;99.90
14735;DHT22;7458;49.002;8.472;2022-12-07T15:10:41;6.80;99.90
14735;DHT22;7458;49.002;8.472;2022-12-07T15:13:07;6.80;99.90
14735;DHT22;7458;49.002;8.472;2022-12-07T15:15:53;6.70;99.90
14735;DHT22;7458;49.002;8.472;2022-12-07T15:18:21;6.70;99.90
14735;DHT22;7458;49.002;8.472;2022-12-07T15:20:49;6.90;99.90
14735;DHT22;7458;49.002;8.472;2022-12-07T15:23:14;6.70;99.90
14735;DHT22;7458;49.002;8.472;2022-12-07T15:25:44;6.70;99.90
14735;DHT22;7458;49.002;8.472;2022-12-07T15:28:13;6.70;99.90
14735;DHT22;7458;49.002;8.472;2022-12-07T15:30:40;6.70;99.90
14735;DHT22;7458;49.002;8.472;2022-12-07T15:33:08;6.70;99.90
14735;DHT22;7458;49.002;8.472;2022-12-07T15:35:33;7.00;99.90
14735;DHT22;7458;49.002;8.472;2022-12-07T15:38:04;6.80;99.90
14735;DHT22;7458;49.002;8.472;2022-12-07T15:40:29;6.70;99.90
14735;DHT22;7458;49.002;8.472;2022-12-07T15:42:57;6.60;99.90
14735;DHT22;7458;49.002;8.472;2022-12-07T15:45:22;6.70;99.90
14735;DHT22;7458;49.002;8.472;2022-12-07T15:47:48;6.60;99.90
14735;DHT22;7458;49.002;8.472;2022-12-07T15:50:15;6.60;99.90
14735;DHT22;7458;49.002;8.472;2022-12-07T15:52:42;6.70;99.90
14735;DHT22;7458;49.002;8.472;2022-12-07T15:55:11;6.50;99.90
14735;DHT22;7458;49.002;8.472;2022-12-07T15:57:38;6.40;99.90
14735;DHT22;7458;49.002;8.472;2022-12-07T16:00:06;6.40;99.90
14735;DHT22;7458;49.002;8.472;2022-12-07T16:02:34;6.40;99.90
14735;DHT22;7458;49.002;8.472;2022-12-07T16:04:59;6.40;99.90
14735;DHT22;7458;49.002;8.472;2022-12-07T16:07:25;6.40;99.90
14735;DHT22;7458;49.002;8.472;2022-12-07T16:09:51;6.20;99.90
14735;DHT22;7458;49.002;8.472;2022-12-07T16:12:17;6.30;99.90
14735;DHT22;7458;49.002;8.472;2022-12-07T16:14:43;6.20;99.90
14735;DHT22;7458;49.002;8.472;2022-12-07T16:17:09;6.20;99.90
14735;DHT22;7458;49.002;8.472;2022-12-07T16:19:37;6.20;99.90
14735;DHT22;7458;49.002;8.472;2022-12-07T16:22:03;6.40;99.90
14735;DHT22;7458;49.002;8.472;2022-12-07T16:24:29;6.20;99.90
14735;DHT22;7458;49.002;8.472;2022-12-07T16:26:56;6.20;99.90
14735;DHT22;7458;49.002;8.472;2022-12-07T16:29:22;6.10;99.90
14735;DHT22;7458;49.002;8.472;2022-12-07T16:31:50;6.20;99.90
14735;DHT22;7458;49.002;8.472;2022-12-07T16:34:17;6.20;99.90
14735;DHT22;7458;49.002;8.472;2022-12-07T16:36:43;6.20;99.90
14735;DHT22;7458;49.002;8.472;2022-12-07T16:39:10;6.10;99.90
14735;DHT22;7458;49.002;8.472;2022-12-07T16:41:35;6.10;99.90
14735;DHT22;7458;49.002;8.472;2022-12-07T16:44:06;6.10;99.90
14735;DHT22;7458;49.002;8.472;2022-12-07T16:46:35;6.10;99.90
14735;DHT22;7458;49.002;8.472;2022-12-07T16:49:01;6.10;99.90
14735;DHT22;7458;49.002;8.472;2022-12-07T16:51:27;6.10;99.90
14735;DHT22;7458;49.002;8.472;2022-12-07T16:53:54;6.20;99.90
14735;DHT22;7458;49.002;8.472;2022-12-07T16:56:19;6.10;99.90
14735;DHT22;7458;49.002;8.472;2022-12-07T16:58:46;6.10;99.90
14735;DHT22;7458;49.002;8.472;2022-12-07T17:01:21;6.10;99.90
14735;DHT22;7458;49.002;8.472;2022-12-07T17:03:48;6.10;99.90
14735;DHT22;7458;49.002;8.472;2022-12-07T17:06:22;6.20;99.90
14735;DHT22;7458;49.002;8.472;2022-12-07T17:08:50;6.30;99.90
14735;DHT22;7458;49.002;8.472;2022-12-07T17:11:21;6.20;99.90
14735;DHT22;7458;49.002;8.472;2022-12-07T17:13:56;6.20;99.90
14735;DHT22;7458;49.002;8.472;2022-12-07T17:16:41;6.10;99.90
14735;DHT22;7458;49.002;8.472;2022-12-07T17:19:09;6.20;99.90
14735;DHT22;7458;49.002;8.472;2022-12-07T17:21:37;6.10;99.90
14735;DHT22;7458;49.002;8.472;2022-12-07T17:24:06;6.20;99.90
14735;DHT22;7458;49.002;8.472;2022-12-07T17:26:37;6.00;99.90
14735;DHT22;7458;49.002;8.472;2022-12-07T17:29:04;6.00;99.90
14735;DHT22;7458;49.002;8.472;2022-12-07T17:31:31;6.10;99.90
14735;DHT22;7458;49.002;8.472;2022-12-07T17:33:58;6.30;99.90
14735;DHT22;7458;49.002;8.472;2022-12-07T17:36:31;6.40;99.90
14735;DHT22;7458;49.002;8.472;2022-12-07T17:38:57;6.10;99.90
14735;DHT22;7458;49.002;8.472;2022-12-07T17:41:25;6.10;99.90
14735;DHT22;7458;49.002;8.472;2022-12-07T17:44:13;6.30;99.90
14735;DHT22;7458;49.002;8.472;2022-12-07T17:46:42;6.60;99.90
14735;DHT22;7458;49.002;8.472;2022-12-07T17:49:08;6.10;99.90
14735;DHT22;7458;49.002;8.472;2022-12-07T17:51:34;6.10;99.90
14735;DHT22;7458;49.002;8.472;2022-12-07T17:54:19;6.10;99.90
14735;DHT22;7458;49.002;8.472;2022-12-07T17:56:45;6.20;99.90
14735;DHT22;7458;49.002;8.472;2022-12-07T17:59:12;6.10;99.90
14735;DHT22;7458;49.002;8.472;2022-12-07T18:01:38;6.10;99.90
14735;DHT22;7458;49.002;8.472;2022-12-07T18:04:05;4.40;99.90
14735;DHT22;7458;49.002;8.472;2022-12-07T18:06:32;6.10;99.90
14735;DHT22;7458;49.002;8.472;2022-12-07T18:08:58;6.10;99.90
14735;DHT22;7458;49.002;8.472;2022-12-07T18:11:25;6.00;99.90
14735;DHT22;7458;49.002;8.472;2022-12-07T18:13:51;6.00;99.90
14735;DHT22;7458;49.002;8.472;2022-12-07T18:16:21;6.00;99.90
14735;DHT22;7458;49.002;8.472;2022-12-07T18:18:49;6.00;99.90
14735;DHT22;7458;49.002;8.472;2022-12-07T18:21:22;6.10;99.90